Terminal Aerodrome Forecast
Issued by NWS Tiyan, Guam

Home | Current Version | Previous Version | Text Only | Print | Product List | Glossary On
Versions: 1 2 3 4 5 6 7 8 9 10 11 12 13
000
FTPQ31 PGUM 171122
TAFGUM
TAF
PGUM 171122Z 1712/1818 07010KT P6SM SCT017
     FM172300 08015KT P6SM SCT024=

USA.gov is the U.S. government's official web portal to all federal, state and local government web resources and services.